createdAt,value
2022-10-09T00:01:26.250Z,87.35
2022-10-09T00:05:33.010Z,87.08
2022-10-09T00:09:47.638Z,86.96
2022-10-09T00:13:27.158Z,87.24
2022-10-09T00:17:04.196Z,86.66
2022-10-09T00:20:40.658Z,86.72
2022-10-09T00:24:53.085Z,86.83
2022-10-09T00:28:51.398Z,86.90
2022-10-09T00:32:50.293Z,87.65
2022-10-09T00:36:50.716Z,87.49
2022-10-09T00:40:49.310Z,87.30
2022-10-09T00:45:02.733Z,87.88
2022-10-09T00:49:08.235Z,88.00
2022-10-09T00:53:08.009Z,87.91
2022-10-09T00:57:10.427Z,88.29
2022-10-09T01:01:13.138Z,88.64
2022-10-09T01:05:44.264Z,88.86
2022-10-09T01:10:32.077Z,89.17
2022-10-09T01:15:07.997Z,89.35
2022-10-09T01:19:21.324Z,88.64
2022-10-09T01:24:15.736Z,88.02
2022-10-09T01:27:32.031Z,88.02
2022-10-09T01:31:36.136Z,88.81
2022-10-09T01:35:49.410Z,88.42
2022-10-09T01:39:50.175Z,88.40
2022-10-09T01:43:48.561Z,88.18
2022-10-09T01:47:48.011Z,87.16
2022-10-09T01:52:12.312Z,85.02
2022-10-09T01:56:19.758Z,85.37
2022-10-09T02:00:36.496Z,84.89
2022-10-09T02:04:50.079Z,86.07
2022-10-09T02:08:51.511Z,87.71
2022-10-09T02:13:03.642Z,87.14
2022-10-09T02:17:19.519Z,87.15
2022-10-09T02:21:37.518Z,87.67
2022-10-09T02:25:50.707Z,87.89
2022-10-09T02:29:50.021Z,87.61
2022-10-09T02:33:55.627Z,87.27
2022-10-09T02:42:33.628Z,88.42
2022-10-09T02:46:32.758Z,88.62
2022-10-09T02:50:31.541Z,88.96
2022-10-09T02:54:30.160Z,88.60
2022-10-09T02:58:46.118Z,88.35
2022-10-09T03:02:57.982Z,88.51
2022-10-09T03:06:56.365Z,89.37
2022-10-09T03:10:54.176Z,89.69
2022-10-09T03:14:52.136Z,89.82
2022-10-09T03:18:51.459Z,89.43
2022-10-09T03:22:49.687Z,89.75
2022-10-09T03:26:48.082Z,89.93
2022-10-09T03:30:46.202Z,90.44
2022-10-09T03:34:44.635Z,90.42
2022-10-09T03:38:42.625Z,90.73
2022-10-09T03:42:40.523Z,90.69
2022-10-09T03:46:38.787Z,90.38
2022-10-09T03:50:38.323Z,90.14
2022-10-09T03:54:36.158Z,89.74
2022-10-09T03:58:34.218Z,89.66
2022-10-09T04:02:33.078Z,89.87
2022-10-09T04:06:31.351Z,89.88
2022-10-09T04:10:29.657Z,89.47
2022-10-09T04:14:27.572Z,89.78
2022-10-09T04:18:25.836Z,90.18
2022-10-09T04:22:23.618Z,90.81
2022-10-09T04:26:21.704Z,90.08
2022-10-09T04:30:19.783Z,89.60
2022-10-09T04:34:31.923Z,89.04
2022-10-09T04:38:31.981Z,89.44
2022-10-09T04:42:31.058Z,89.43
2022-10-09T04:46:28.926Z,89.83
2022-10-09T04:50:27.501Z,90.19
2022-10-09T04:54:33.158Z,90.37
2022-10-09T04:58:10.662Z,90.97
2022-10-09T05:02:08.784Z,90.99
2022-10-09T05:06:10.327Z,90.80
2022-10-09T05:10:09.097Z,90.45
2022-10-09T05:14:08.720Z,89.89
2022-10-09T05:18:21.237Z,90.05
2022-10-09T05:22:20.291Z,90.64
2022-10-09T05:26:22.946Z,90.98
2022-10-09T05:29:56.302Z,90.92
2022-10-09T05:33:56.161Z,91.02
2022-10-09T05:37:54.436Z,90.60
2022-10-09T05:41:52.657Z,90.85
2022-10-09T05:45:51.788Z,90.85
2022-10-09T05:54:05.376Z,91.52
2022-10-09T05:58:04.036Z,91.50
2022-10-09T06:02:03.394Z,91.41
2022-10-09T06:06:07.164Z,91.39
2022-10-09T06:10:19.645Z,90.84
2022-10-09T06:14:18.440Z,90.44
2022-10-09T06:18:17.037Z,90.34
2022-10-09T06:22:15.196Z,89.95
2022-10-09T06:26:14.593Z,88.86
2022-10-09T06:30:13.879Z,88.82
2022-10-09T06:34:28.804Z,88.97
2022-10-09T06:38:07.365Z,88.45
2022-10-09T06:41:41.079Z,87.09
2022-10-09T06:45:53.642Z,86.48
2022-10-09T06:49:51.841Z,85.74
2022-10-09T06:54:11.058Z,84.12
2022-10-09T06:58:22.887Z,84.38
2022-10-09T07:02:25.748Z,83.23
2022-10-09T07:06:14.137Z,83.67
2022-10-09T07:09:36.383Z,83.34
2022-10-09T07:13:55.311Z,83.31
2022-10-09T07:18:07.391Z,84.02
2022-10-09T07:22:11.368Z,85.16
2022-10-09T07:26:20.151Z,84.84
2022-10-09T07:30:18.607Z,84.17
2022-10-09T07:34:31.169Z,83.07
2022-10-09T07:38:35.782Z,82.12
2022-10-09T07:42:07.869Z,80.46
2022-10-09T07:46:10.801Z,80.39
2022-10-09T07:50:09.923Z,79.24
2022-10-09T07:54:09.729Z,78.87
2022-10-09T07:58:08.437Z,78.26
2022-10-09T08:02:09.699Z,78.22
2022-10-09T08:06:09.110Z,77.18
2022-10-09T08:10:08.721Z,77.60
2022-10-09T08:14:07.991Z,77.56
2022-10-09T08:18:06.209Z,76.54
2022-10-09T08:22:07.029Z,76.11
2022-10-09T08:26:14.881Z,75.24
2022-10-09T08:30:15.621Z,75.97
2022-10-09T08:34:14.629Z,75.42
2022-10-09T08:38:30.958Z,76.44
2022-10-09T08:42:40.471Z,76.85
2022-10-09T08:46:55.639Z,76.80
2022-10-09T08:50:57.610Z,77.96
2022-10-09T08:54:59.571Z,78.08
2022-10-09T08:58:58.137Z,78.01
2022-10-09T09:03:14.947Z,77.94
2022-10-09T09:07:39.537Z,78.11
2022-10-09T09:11:52.004Z,78.02
2022-10-09T09:16:01.863Z,78.21
2022-10-09T09:20:23.866Z,78.40
2022-10-09T09:24:45.138Z,76.09
2022-10-09T09:28:45.098Z,72.76
2022-10-09T09:37:40.960Z,65.33
2022-10-09T09:41:43.650Z,66.25
2022-10-09T09:45:44.170Z,68.37
2022-10-09T09:49:58.897Z,68.16
2022-10-09T09:54:07.777Z,67.66
2022-10-09T09:58:15.838Z,67.58
2022-10-09T10:02:14.132Z,67.01
2022-10-09T10:06:30.623Z,66.52
2022-10-09T10:10:48.135Z,65.84
2022-10-09T10:14:51.088Z,66.74
2022-10-09T10:18:50.471Z,66.02
2022-10-09T10:23:02.675Z,66.97
2022-10-09T10:27:14.391Z,66.56
2022-10-09T10:31:20.097Z,64.83
2022-10-09T10:35:26.091Z,65.35
2022-10-09T10:39:32.149Z,64.44
2022-10-09T10:43:44.051Z,64.44
2022-10-09T10:48:00.023Z,64.04
2022-10-09T10:52:20.827Z,63.53
2022-10-09T10:56:32.127Z,62.28
2022-10-09T11:00:34.702Z,62.40
2022-10-09T11:05:17.505Z,63.52
2022-10-09T11:09:41.925Z,65.55
2022-10-09T11:19:00.158Z,66.07
2022-10-09T11:23:27.497Z,66.98
2022-10-09T11:27:36.195Z,65.15
2022-10-09T11:31:38.802Z,63.16
2022-10-09T11:35:42.276Z,63.57
2022-10-09T11:39:41.733Z,63.78
2022-10-09T11:43:52.373Z,64.18
2022-10-09T11:48:04.714Z,64.46
2022-10-09T11:52:28.049Z,64.15
2022-10-09T11:56:51.931Z,63.49
2022-10-09T12:05:35.874Z,63.55
2022-10-09T12:09:48.710Z,64.42
2022-10-09T12:13:51.200Z,64.79
2022-10-09T12:17:50.394Z,63.78
2022-10-09T12:22:14.039Z,64.18
2022-10-09T12:26:26.508Z,64.02
2022-10-09T12:30:47.474Z,63.93
2022-10-09T12:34:51.703Z,64.48
2022-10-09T12:38:50.186Z,63.66
2022-10-09T12:42:52.479Z,64.66
2022-10-09T12:47:14.364Z,65.14
2022-10-09T12:51:23.410Z,63.91
2022-10-09T12:55:26.819Z,63.48
2022-10-09T12:59:27.946Z,64.63
2022-10-09T13:03:53.706Z,62.27
2022-10-09T13:07:54.782Z,61.72
2022-10-09T13:12:06.616Z,61.84
2022-10-09T13:16:09.796Z,63.17
2022-10-09T13:20:13.133Z,61.33
2022-10-09T13:23:46.356Z,60.85
2022-10-09T13:27:45.054Z,60.62
2022-10-09T13:31:44.331Z,61.13
2022-10-09T13:35:43.554Z,61.33
2022-10-09T13:39:42.142Z,61.75
2022-10-09T13:43:54.571Z,62.93
2022-10-09T13:47:53.515Z,63.54
2022-10-09T13:51:51.881Z,63.72
2022-10-09T13:55:55.983Z,62.30
2022-10-09T13:59:56.767Z,62.57
2022-10-09T14:03:56.026Z,63.00
2022-10-09T14:07:56.924Z,62.85
2022-10-09T14:11:33.830Z,63.66
2022-10-09T14:15:32.754Z,63.68
2022-10-09T14:19:45.454Z,64.21
2022-10-09T14:27:56.435Z,64.62
2022-10-09T14:31:54.792Z,65.63
2022-10-09T14:35:53.322Z,66.13
2022-10-09T14:39:53.089Z,65.83
2022-10-09T14:43:57.213Z,65.91
2022-10-09T14:47:55.648Z,66.57
2022-10-09T14:52:08.108Z,66.80
2022-10-09T14:56:10.374Z,67.27
2022-10-09T15:00:09.794Z,66.84
2022-10-09T15:04:08.614Z,65.52
2022-10-09T15:08:08.035Z,65.95
2022-10-09T15:12:07.313Z,66.11
2022-10-09T15:16:21.196Z,67.70
2022-10-09T15:20:20.352Z,66.68
2022-10-09T15:24:19.896Z,66.07
2022-10-09T15:28:33.150Z,66.79
2022-10-09T15:42:49.077Z,66.64
2022-10-09T15:46:57.243Z,67.80
2022-10-09T15:50:36.296Z,67.57
2022-10-09T15:54:04.836Z,67.54
2022-10-09T15:58:17.779Z,67.31
2022-10-09T16:02:15.876Z,68.01
2022-10-09T16:06:18.103Z,68.16
2022-10-09T16:10:16.713Z,68.52
2022-10-09T16:14:15.436Z,68.66
2022-10-09T16:18:14.600Z,69.13
2022-10-09T16:22:26.990Z,69.40
2022-10-09T16:26:27.544Z,69.68
2022-10-09T16:30:26.311Z,69.58
2022-10-09T16:34:24.698Z,69.67
2022-10-09T16:38:38.229Z,70.83
2022-10-09T16:42:51.517Z,71.47
2022-10-09T16:46:50.578Z,71.08
2022-10-09T16:50:49.005Z,71.17
2022-10-09T16:55:01.018Z,71.16
2022-10-09T16:59:13.634Z,71.76
2022-10-09T17:03:11.871Z,71.63
2022-10-09T17:07:11.355Z,71.97
2022-10-09T17:11:11.984Z,72.19
2022-10-09T17:15:10.817Z,72.03
2022-10-09T17:19:09.612Z,73.01
2022-10-09T17:23:08.550Z,72.78
2022-10-09T17:27:10.325Z,73.18
2022-10-09T17:31:11.535Z,73.18
2022-10-09T17:35:10.386Z,73.28
2022-10-09T17:39:13.163Z,73.23
2022-10-09T17:43:11.690Z,73.07
2022-10-09T17:47:10.097Z,73.25
2022-10-09T17:51:08.571Z,73.31
2022-10-09T17:55:07.909Z,73.84
2022-10-09T17:59:06.720Z,74.03
2022-10-09T18:03:19.568Z,74.43
2022-10-09T18:07:20.482Z,74.58
2022-10-09T18:11:32.794Z,74.04
2022-10-09T18:15:31.460Z,74.67
2022-10-09T18:19:29.768Z,75.11
2022-10-09T18:23:28.336Z,75.48
2022-10-09T18:27:29.122Z,75.93
2022-10-09T18:31:28.864Z,76.20
2022-10-09T18:35:30.550Z,75.78
2022-10-09T18:39:29.162Z,76.36
2022-10-09T18:43:41.296Z,76.69
2022-10-09T18:47:41.131Z,76.74
2022-10-09T18:51:42.870Z,76.63
2022-10-09T18:55:19.148Z,76.86
2022-10-09T18:59:20.889Z,77.29
2022-10-09T19:03:19.544Z,77.24
2022-10-09T19:07:18.519Z,77.95
2022-10-09T19:11:19.661Z,78.36
2022-10-09T19:15:19.530Z,78.39
2022-10-09T19:19:18.163Z,78.15
2022-10-09T19:23:17.268Z,78.19
2022-10-09T19:27:15.440Z,78.22
2022-10-09T19:31:29.819Z,78.60
2022-10-09T19:35:05.523Z,78.73
2022-10-09T19:39:08.569Z,78.65
2022-10-09T19:43:08.017Z,79.12
2022-10-09T19:47:21.648Z,78.93
2022-10-09T19:51:25.212Z,79.31
2022-10-09T19:55:26.499Z,80.46
2022-10-09T19:59:41.240Z,79.68
2022-10-09T20:03:40.006Z,80.25
2022-10-09T20:07:38.838Z,80.53
2022-10-09T20:11:39.609Z,80.45
2022-10-09T20:15:14.981Z,80.29
2022-10-09T20:19:30.975Z,80.16
2022-10-09T20:23:44.921Z,80.55
2022-10-09T20:27:43.626Z,80.94
2022-10-09T20:31:42.761Z,80.74
2022-10-09T20:35:45.201Z,80.71
2022-10-09T20:39:44.006Z,80.86
2022-10-09T20:43:42.970Z,80.79
2022-10-09T20:47:41.222Z,80.87
2022-10-09T20:51:41.017Z,80.63
2022-10-09T20:55:39.590Z,80.45
2022-10-09T20:59:52.084Z,80.71
2022-10-09T21:03:51.639Z,80.93
2022-10-09T21:07:50.020Z,81.01
2022-10-09T21:11:48.647Z,81.39
2022-10-09T21:15:49.276Z,81.43
2022-10-09T21:19:50.654Z,81.43
2022-10-09T21:23:52.596Z,81.62
2022-10-09T21:27:26.980Z,81.49
2022-10-09T21:31:28.736Z,81.59
2022-10-09T21:35:44.038Z,82.11
2022-10-09T21:39:56.901Z,82.27
2022-10-09T21:44:08.958Z,82.02
2022-10-09T21:52:33.166Z,81.95
2022-10-09T21:56:31.755Z,81.81
2022-10-09T22:00:30.334Z,81.37
2022-10-09T22:04:42.398Z,81.68
2022-10-09T22:08:41.418Z,81.63
2022-10-09T22:12:40.208Z,81.60
2022-10-09T22:16:38.675Z,81.56
2022-10-09T22:20:45.198Z,82.13
2022-10-09T22:24:43.490Z,82.35
2022-10-09T22:28:43.709Z,82.49
2022-10-09T22:32:42.214Z,82.34
2022-10-09T22:36:54.750Z,82.45
2022-10-09T22:41:18.729Z,82.75
2022-10-09T22:45:30.738Z,82.38
2022-10-09T22:49:42.777Z,82.16
2022-10-09T22:53:59.678Z,82.03
2022-10-09T22:57:57.539Z,82.31
2022-10-09T23:02:09.538Z,82.37
2022-10-09T23:06:21.810Z,82.77
2022-10-09T23:10:20.880Z,82.33
2022-10-09T23:14:33.291Z,81.55
2022-10-09T23:18:33.036Z,81.83
2022-10-09T23:22:31.851Z,82.56
2022-10-09T23:26:50.783Z,83.12
2022-10-09T23:30:49.898Z,82.95
2022-10-09T23:34:48.267Z,83.07
2022-10-09T23:39:02.357Z,82.85
2022-10-09T23:43:00.609Z,83.06
2022-10-09T23:46:59.078Z,83.50
2022-10-09T23:50:57.731Z,83.75
2022-10-09T23:54:55.710Z,83.61
2022-10-09T23:58:55.324Z,83.77
